Time;durP1;ratioP1;P1;durP2;ratioP2;P2;SDS_P1;SDS_P2;PMS_P1;PMS_P2;Temp;Humidity;BMP_temperature;BMP_pressure;BME280_temperature;BME280_humidity;BME280_pressure;Samples;Min_cycle;Max_cycle;Signal;HPM_P1;HPM_P2
2021/12/13 00:01:25;;;;;;;24.30;10.87;;;;;;;;;;5035626;28;20219;-80
2021/12/13 00:03:55;;;;;;;32.90;11.57;;;;;;;;;;5035235;28;20257;-79
2021/12/13 00:06:26;;;;;;;23.63;10.33;;;;;;;;;;5037611;28;20219;-79
2021/12/13 00:08:55;;;;;;;35.37;11.07;;;;;;;;;;5035993;28;20277;-80
2021/12/13 00:11:24;;;;;;;24.57;11.20;;;;;;;;;;5032535;28;20300;-79
2021/12/13 00:13:53;;;;;;;30.23;11.17;;;;;;;;;;5037032;28;20291;-78
2021/12/13 00:16:24;;;;;;;26.53;12.00;;;;;;;;;;5037571;28;20235;-81
2021/12/13 00:18:55;;;;;;;28.33;10.53;;;;;;;;;;5045234;28;20266;-79
2021/12/13 00:21:24;;;;;;;29.70;11.90;;;;;;;;;;5039814;28;20306;-81
2021/12/13 00:24:05;;;;;;;22.83;11.30;;;;;;;;;;5034146;28;20449;-78
2021/12/13 00:26:34;;;;;;;25.63;11.40;;;;;;;;;;5036349;28;20210;-78
2021/12/13 00:29:09;;;;;;;27.53;11.70;;;;;;;;;;5029359;28;20287;-78
2021/12/13 00:31:41;;;;;;;24.30;11.67;;;;;;;;;;5030583;28;20556;-79
2021/12/13 00:34:13;;;;;;;31.03;12.13;;;;;;;;;;5033213;28;20219;-80
2021/12/13 00:36:42;;;;;;;25.53;11.50;;;;;;;;;;5031475;28;20254;-78
2021/12/13 00:39:13;;;;;;;31.23;12.80;;;;;;;;;;5029469;28;20241;-77
2021/12/13 00:41:42;;;;;;;29.47;12.07;;;;;;;;;;5030722;28;20334;-79
2021/12/13 00:44:12;;;;;;;24.27;12.30;;;;;;;;;;5031035;28;20214;-80
2021/12/13 00:46:40;;;;;;;33.20;13.23;;;;;;;;;;5031330;28;20230;-79
2021/12/13 00:49:10;;;;;;;34.13;12.17;;;;;;;;;;5031749;28;20318;-81
2021/12/13 00:51:38;;;;;;;35.47;12.47;;;;;;;;;;5034852;28;20290;-79
2021/12/13 00:54:12;;;;;;;28.77;12.40;;;;;;;;;;5033447;28;20635;-80
2021/12/13 00:56:46;;;;;;;27.70;11.93;;;;;;;;;;5033005;28;20289;-80
2021/12/13 00:59:14;;;;;;;30.53;12.63;;;;;;;;;;5031382;28;20226;-80
2021/12/13 01:01:42;;;;;;;26.77;12.57;;;;;;;;;;5032609;28;20215;-80
2021/12/13 01:47:40;;;;;;;25.77;11.67;;;;;;;;;;5029911;28;20235;-79
2021/12/13 01:50:10;;;;;;;29.33;11.47;;;;;;;;;;5027662;28;20642;-79
2021/12/13 01:52:38;;;;;;;33.73;11.70;;;;;;;;;;5030567;28;20550;-80
2021/12/13 01:55:07;;;;;;;32.93;11.77;;;;;;;;;;5025999;28;20320;-80
2021/12/13 01:57:41;;;;;;;28.53;11.37;;;;;;;;;;5030665;28;20687;-78
2021/12/13 02:00:17;;;;;;;27.70;11.13;;;;;;;;;;5034564;28;20218;-79
2021/12/13 02:02:47;;;;;;;30.07;11.13;;;;;;;;;;5027993;28;20203;-79
2021/12/13 02:05:15;;;;;;;30.40;11.80;;;;;;;;;;5031856;28;20208;-78
2021/12/13 02:07:45;;;;;;;27.60;10.50;;;;;;;;;;5033574;28;20238;-78
2021/12/13 02:10:15;;;;;;;31.87;11.23;;;;;;;;;;5036921;28;20310;-79
2021/12/13 02:12:43;;;;;;;28.97;10.33;;;;;;;;;;5034727;28;20279;-79
2021/12/13 02:42:28;;;;;;;26.00;10.57;;;;;;;;;;5031772;28;20190;-80
2021/12/13 02:45:01;;;;;;;30.00;10.90;;;;;;;;;;5031046;28;20195;-79
2021/12/13 02:47:30;;;;;;;29.67;10.60;;;;;;;;;;5031431;28;20553;-78
2021/12/13 02:49:58;;;;;;;33.10;10.33;;;;;;;;;;5033593;28;20329;-81
2021/12/13 02:52:25;;;;;;;26.50;9.63;;;;;;;;;;5030899;28;20207;-81
2021/12/13 02:54:54;;;;;;;24.43;9.80;;;;;;;;;;5033025;28;20245;-81
2021/12/13 02:57:33;;;;;;;26.30;10.50;;;;;;;;;;5045496;28;20218;-79
2021/12/13 03:00:05;;;;;;;29.17;10.43;;;;;;;;;;5029310;28;20848;-78
2021/12/13 03:02:35;;;;;;;25.97;10.07;;;;;;;;;;5030018;28;20301;-79
2021/12/13 03:05:03;;;;;;;22.63;9.60;;;;;;;;;;5033689;28;20557;-78
2021/12/13 03:07:31;;;;;;;25.73;9.97;;;;;;;;;;5031160;28;20539;-79
2021/12/13 03:09:59;;;;;;;24.30;10.50;;;;;;;;;;5034879;28;20227;-78
2021/12/13 03:12:27;;;;;;;22.40;9.63;;;;;;;;;;5039602;28;20636;-76
2021/12/13 03:14:57;;;;;;;30.53;10.40;;;;;;;;;;5041247;28;20239;-78
2021/12/13 03:17:27;;;;;;;23.13;10.13;;;;;;;;;;5033853;28;20258;-77
2021/12/13 03:20:03;;;;;;;22.77;10.27;;;;;;;;;;5036998;28;20234;-78
2021/12/13 03:22:39;;;;;;;21.67;9.67;;;;;;;;;;5033369;28;20575;-78
2021/12/13 03:25:13;;;;;;;34.30;10.20;;;;;;;;;;5034356;28;20354;-80
2021/12/13 03:27:53;;;;;;;23.43;10.70;;;;;;;;;;5034893;28;20299;-77
2021/12/13 03:30:23;;;;;;;26.03;10.67;;;;;;;;;;5036427;28;20250;-79
2021/12/13 03:32:54;;;;;;;24.80;10.07;;;;;;;;;;5034589;28;20282;-79
2021/12/13 03:35:24;;;;;;;26.33;10.57;;;;;;;;;;5034932;28;20212;-78
2021/12/13 03:37:58;;;;;;;24.10;9.67;;;;;;;;;;5029435;28;20242;-77
2021/12/13 03:40:25;;;;;;;23.57;10.53;;;;;;;;;;5025465;28;20304;-78
2021/12/13 03:42:54;;;;;;;27.17;9.90;;;;;;;;;;5033125;28;20239;-79
2021/12/13 03:45:25;;;;;;;25.77;10.43;;;;;;;;;;5037637;28;20295;-79
2021/12/13 03:47:56;;;;;;;26.40;9.37;;;;;;;;;;5034844;28;20238;-79
2021/12/13 03:50:24;;;;;;;26.57;10.73;;;;;;;;;;5035352;28;20655;-79
2021/12/13 03:52:54;;;;;;;28.53;10.87;;;;;;;;;;5035066;28;20203;-80
2021/12/13 03:55:24;;;;;;;29.23;10.73;;;;;;;;;;5032189;28;20642;-79
2021/12/13 03:57:53;;;;;;;23.87;10.10;;;;;;;;;;5033922;28;20287;-79
2021/12/13 04:00:23;;;;;;;27.23;10.27;;;;;;;;;;5035854;28;21117;-79
2021/12/13 04:02:53;;;;;;;22.67;9.70;;;;;;;;;;5037122;28;21230;-78
2021/12/13 04:05:22;;;;;;;22.70;9.30;;;;;;;;;;5034922;28;20302;-79
2021/12/13 04:07:51;;;;;;;26.90;10.27;;;;;;;;;;5033884;28;21016;-79
2021/12/13 04:10:19;;;;;;;20.47;9.27;;;;;;;;;;5036329;28;20286;-79
2021/12/13 04:12:49;;;;;;;22.60;9.17;;;;;;;;;;5035717;28;20278;-80
2021/12/13 04:15:20;;;;;;;22.53;9.73;;;;;;;;;;5032450;28;20227;-80
2021/12/13 04:17:59;;;;;;;35.20;10.63;;;;;;;;;;5036647;28;20207;-80
2021/12/13 04:20:30;;;;;;;26.43;10.13;;;;;;;;;;5034186;28;20251;-81
2021/12/13 04:22:58;;;;;;;25.47;10.33;;;;;;;;;;5030200;28;20750;-80
2021/12/13 04:25:27;;;;;;;20.27;9.17;;;;;;;;;;5033353;28;20265;-80
2021/12/13 04:27:56;;;;;;;24.13;10.20;;;;;;;;;;5036438;28;20200;-79
2021/12/13 04:30:26;;;;;;;24.50;9.70;;;;;;;;;;5038671;28;20588;-80
2021/12/13 04:32:54;;;;;;;28.13;9.93;;;;;;;;;;5038502;28;20297;-80
2021/12/13 04:35:22;;;;;;;24.37;9.13;;;;;;;;;;5033660;28;20245;-80
2021/12/13 04:37:52;;;;;;;21.87;8.57;;;;;;;;;;5035203;28;20289;-79
2021/12/13 04:40:20;;;;;;;24.20;10.07;;;;;;;;;;5035898;28;20255;-79
2021/12/13 04:42:50;;;;;;;28.30;8.97;;;;;;;;;;5053417;28;20218;-80
2021/12/13 04:45:18;;;;;;;28.53;9.20;;;;;;;;;;5041740;28;20267;-78
2021/12/13 04:47:48;;;;;;;19.73;9.40;;;;;;;;;;5023365;28;20202;-80
2021/12/13 04:50:16;;;;;;;20.63;8.87;;;;;;;;;;5023789;28;20219;-80
2021/12/13 04:52:45;;;;;;;20.60;8.30;;;;;;;;;;5027075;28;20204;-78
2021/12/13 04:55:16;;;;;;;23.57;9.20;;;;;;;;;;5024551;28;20295;-78
2021/12/13 04:57:44;;;;;;;24.23;9.60;;;;;;;;;;5024709;28;20803;-78
2021/12/13 05:00:14;;;;;;;25.80;9.20;;;;;;;;;;5025161;28;20318;-79
2021/12/13 05:02:43;;;;;;;24.10;8.40;;;;;;;;;;5021291;28;20882;-78
2021/12/13 05:05:12;;;;;;;23.03;9.10;;;;;;;;;;5022871;28;20219;-77
2021/12/13 05:07:41;;;;;;;23.13;8.77;;;;;;;;;;5023490;28;20281;-78
2021/12/13 05:10:09;;;;;;;20.87;8.47;;;;;;;;;;5021240;28;20220;-78
2021/12/13 05:12:38;;;;;;;25.73;8.97;;;;;;;;;;5019039;28;20249;-78
2021/12/13 05:15:07;;;;;;;21.90;9.03;;;;;;;;;;5028318;28;20343;-79
2021/12/13 05:17:36;;;;;;;25.77;8.67;;;;;;;;;;5025800;28;20213;-79
2021/12/13 05:20:08;;;;;;;24.80;8.40;;;;;;;;;;5023592;28;20319;-79
2021/12/13 05:22:40;;;;;;;24.93;8.30;;;;;;;;;;5021913;28;20729;-78
2021/12/13 05:25:08;;;;;;;20.10;7.93;;;;;;;;;;5031627;28;20235;-79
2021/12/13 05:27:38;;;;;;;18.67;8.00;;;;;;;;;;5034873;28;20294;-78
2021/12/13 05:30:13;;;;;;;24.30;7.67;;;;;;;;;;5025685;28;20254;-79
2021/12/13 05:32:42;;;;;;;17.93;8.27;;;;;;;;;;5024409;28;20203;-80
2021/12/13 05:35:15;;;;;;;20.50;8.63;;;;;;;;;;5020116;28;20297;-80
2021/12/13 05:37:43;;;;;;;23.80;7.47;;;;;;;;;;5033257;28;20617;-79
2021/12/13 05:40:12;;;;;;;17.73;7.70;;;;;;;;;;5035125;28;20395;-79
2021/12/13 05:42:40;;;;;;;19.03;7.47;;;;;;;;;;5023429;28;20207;-79
2021/12/13 05:45:08;;;;;;;15.30;7.47;;;;;;;;;;5028722;28;20289;-79
2021/12/13 05:47:37;;;;;;;22.17;8.47;;;;;;;;;;5031309;28;20208;-80
2021/12/13 05:50:24;;;;;;;18.80;8.07;;;;;;;;;;5031717;28;20783;-80
2021/12/13 05:53:01;;;;;;;17.27;7.90;;;;;;;;;;5030519;28;20206;-80
2021/12/13 05:55:30;;;;;;;24.97;7.97;;;;;;;;;;5036817;28;20242;-80
2021/12/13 05:57:57;;;;;;;16.80;8.00;;;;;;;;;;5036210;28;20229;-79
2021/12/13 06:00:26;;;;;;;19.60;7.87;;;;;;;;;;5032866;28;20261;-80
2021/12/13 06:03:06;;;;;;;17.17;7.23;;;;;;;;;;5029606;28;20276;-79
2021/12/13 06:05:35;;;;;;;16.87;7.13;;;;;;;;;;5029177;28;20203;-79
2021/12/13 06:08:04;;;;;;;15.47;7.10;;;;;;;;;;5040990;28;20700;-78
2021/12/13 06:10:37;;;;;;;14.00;5.77;;;;;;;;;;5038781;28;20658;-79
2021/12/13 06:13:08;;;;;;;15.00;6.33;;;;;;;;;;5040793;28;20309;-80
2021/12/13 06:15:37;;;;;;;16.33;7.00;;;;;;;;;;5038488;28;20875;-79
2021/12/13 06:18:23;;;;;;;15.83;6.97;;;;;;;;;;5029865;28;20775;-81
2021/12/13 06:20:56;;;;;;;13.40;6.47;;;;;;;;;;5034801;28;20313;-80
2021/12/13 06:23:25;;;;;;;24.90;8.30;;;;;;;;;;5033187;28;20744;-79
2021/12/13 06:25:56;;;;;;;21.73;7.87;;;;;;;;;;5035449;28;20289;-80
2021/12/13 06:28:25;;;;;;;16.73;7.07;;;;;;;;;;5030756;28;20215;-79
2021/12/13 06:30:55;;;;;;;16.67;7.17;;;;;;;;;;5027403;28;20195;-80
2021/12/13 06:33:24;;;;;;;14.70;6.40;;;;;;;;;;5025213;28;20219;-80
2021/12/13 06:35:53;;;;;;;12.87;6.67;;;;;;;;;;5028242;28;20291;-80
2021/12/13 06:38:47;;;;;;;10.47;5.73;;;;;;;;;;5034312;28;20318;-79
2021/12/13 06:41:17;;;;;;;12.10;5.50;;;;;;;;;;4999490;28;20361;-81
2021/12/13 06:43:48;;;;;;;14.60;5.43;;;;;;;;;;5039703;28;20237;-80
2021/12/13 06:46:31;;;;;;;18.17;6.33;;;;;;;;;;5041336;28;20249;-81
2021/12/13 06:49:02;;;;;;;15.57;6.20;;;;;;;;;;5041330;28;20226;-80
2021/12/13 06:51:39;;;;;;;15.27;6.07;;;;;;;;;;5040948;28;20693;-79
2021/12/13 06:54:09;;;;;;;50.60;18.93;;;;;;;;;;5039994;28;20195;-81
2021/12/13 06:56:38;;;;;;;34.13;12.20;;;;;;;;;;5050420;28;20210;-80
2021/12/13 06:59:07;;;;;;;39.30;13.10;;;;;;;;;;5052512;28;20249;-78
2021/12/13 07:04:24;;;;;;;28.57;10.20;;;;;;;;;;5037061;28;20211;-80
2021/12/13 07:10:15;;;;;;;24.77;8.13;;;;;;;;;;4975346;28;20227;-78
2021/12/13 07:12:45;;;;;;;21.50;8.10;;;;;;;;;;5036016;28;20234;-80
2021/12/13 07:15:22;;;;;;;21.30;7.60;;;;;;;;;;5035018;28;20218;-79
2021/12/13 07:18:00;;;;;;;27.47;8.77;;;;;;;;;;5036989;28;20294;-82
2021/12/13 07:20:36;;;;;;;20.20;7.60;;;;;;;;;;5033662;28;20597;-79
2021/12/13 07:23:04;;;;;;;17.93;7.10;;;;;;;;;;5036157;28;20666;-79
2021/12/13 07:25:38;;;;;;;24.63;7.30;;;;;;;;;;5041567;28;20203;-78
2021/12/13 07:28:08;;;;;;;31.03;8.37;;;;;;;;;;5043694;28;20210;-77
2021/12/13 07:30:38;;;;;;;23.43;7.77;;;;;;;;;;5044631;28;20668;-79
2021/12/13 07:33:08;;;;;;;20.10;7.00;;;;;;;;;;5042590;28;20916;-78
2021/12/13 07:35:40;;;;;;;23.30;6.80;;;;;;;;;;5045766;28;20297;-78
2021/12/13 07:38:10;;;;;;;18.37;6.50;;;;;;;;;;5047050;28;20215;-78
2021/12/13 07:40:41;;;;;;;22.60;6.77;;;;;;;;;;5044267;28;20226;-78
2021/12/13 07:43:12;;;;;;;21.30;7.03;;;;;;;;;;5038708;28;20207;-79
2021/12/13 07:45:42;;;;;;;27.07;7.97;;;;;;;;;;5046428;28;20221;-81
2021/12/13 07:48:12;;;;;;;19.83;6.70;;;;;;;;;;5042850;28;20297;-81
2021/12/13 07:50:42;;;;;;;17.80;5.90;;;;;;;;;;5039407;28;20214;-79
2021/12/13 07:53:12;;;;;;;16.30;7.40;;;;;;;;;;5041689;28;20202;-80
2021/12/13 07:55:46;;;;;;;15.57;6.00;;;;;;;;;;5034201;28;20207;-81
2021/12/13 07:58:15;;;;;;;16.07;6.03;;;;;;;;;;5036607;28;20328;-79
2021/12/13 08:00:42;;;;;;;20.13;6.27;;;;;;;;;;5039892;28;20696;-78
2021/12/13 08:03:13;;;;;;;19.07;6.37;;;;;;;;;;5039998;28;20218;-80
2021/12/13 08:05:46;;;;;;;19.47;7.00;;;;;;;;;;5037930;28;20214;-78
2021/12/13 08:08:18;;;;;;;20.47;7.67;;;;;;;;;;5038738;28;20250;-79
2021/12/13 08:10:48;;;;;;;26.67;8.63;;;;;;;;;;5037118;28;20202;-79
2021/12/13 08:13:21;;;;;;;33.67;9.57;;;;;;;;;;5033614;28;20238;-78
2021/12/13 08:15:52;;;;;;;32.27;9.83;;;;;;;;;;5029417;28;20215;-80
2021/12/13 08:18:25;;;;;;;38.33;12.00;;;;;;;;;;5036595;28;20192;-79
2021/12/13 08:20:57;;;;;;;36.97;11.87;;;;;;;;;;5041130;28;20227;-80
2021/12/13 08:23:27;;;;;;;31.83;9.73;;;;;;;;;;5035050;28;20374;-79
2021/12/13 08:25:57;;;;;;;30.67;8.03;;;;;;;;;;5036425;28;20227;-81
2021/12/13 08:28:32;;;;;;;50.03;9.77;;;;;;;;;;5038989;28;20220;-79
2021/12/13 08:31:01;;;;;;;57.70;10.50;;;;;;;;;;5034058;28;20222;-80
2021/12/13 08:33:33;;;;;;;36.07;9.17;;;;;;;;;;5035886;28;20610;-81
2021/12/13 08:36:03;;;;;;;57.50;9.53;;;;;;;;;;5039019;28;20199;-81
2021/12/13 08:38:34;;;;;;;78.87;10.90;;;;;;;;;;5042703;28;20222;-81
2021/12/13 08:41:03;;;;;;;39.37;11.47;;;;;;;;;;5042548;28;20310;-82
2021/12/13 08:43:39;;;;;;;54.60;14.23;;;;;;;;;;5046349;28;20669;-81
2021/12/13 08:46:06;;;;;;;36.83;12.27;;;;;;;;;;5041630;28;20245;-81
2021/12/13 08:48:43;;;;;;;39.87;14.50;;;;;;;;;;5035898;28;20238;-81
2021/12/13 08:51:16;;;;;;;60.03;15.50;;;;;;;;;;5038820;28;20257;-80
2021/12/13 08:53:44;;;;;;;46.10;15.93;;;;;;;;;;5036496;28;20211;-82
2021/12/13 08:56:12;;;;;;;56.37;16.50;;;;;;;;;;5041902;28;20733;-82
2021/12/13 08:58:51;;;;;;;41.70;13.73;;;;;;;;;;5037158;28;20238;-81
2021/12/13 09:01:19;;;;;;;37.87;14.03;;;;;;;;;;5037373;28;20313;-83
2021/12/13 09:03:48;;;;;;;39.67;13.20;;;;;;;;;;5041264;28;20219;-82
2021/12/13 09:06:30;;;;;;;26.90;11.60;;;;;;;;;;5038918;28;20255;-82
2021/12/13 09:09:00;;;;;;;26.03;11.33;;;;;;;;;;5040101;28;20261;-81
2021/12/13 09:11:31;;;;;;;33.47;12.30;;;;;;;;;;5042710;28;20276;-83
2021/12/13 09:13:59;;;;;;;30.13;11.93;;;;;;;;;;5046663;28;20259;-82
2021/12/13 09:16:30;;;;;;;34.97;13.13;;;;;;;;;;5033090;28;20196;-81
2021/12/13 09:19:18;;;;;;;33.57;11.90;;;;;;;;;;5031839;28;20258;-81
2021/12/13 09:21:53;;;;;;;29.40;11.87;;;;;;;;;;5024563;28;20223;-81
2021/12/13 09:24:26;;;;;;;32.23;12.17;;;;;;;;;;5039460;28;20207;-81
2021/12/13 09:26:57;;;;;;;30.97;12.47;;;;;;;;;;5046919;28;20202;-81
2021/12/13 09:29:25;;;;;;;32.77;11.87;;;;;;;;;;5042410;28;20723;-81
2021/12/13 09:31:53;;;;;;;29.60;11.90;;;;;;;;;;5040723;28;20207;-82
2021/12/13 09:34:22;;;;;;;28.20;11.23;;;;;;;;;;5034383;28;20318;-82
2021/12/13 09:36:52;;;;;;;31.53;12.33;;;;;;;;;;5035083;28;20633;-82
2021/12/13 09:39:23;;;;;;;26.20;10.43;;;;;;;;;;5035692;28;20763;-81
2021/12/13 09:41:53;;;;;;;32.37;13.00;;;;;;;;;;5042257;28;20222;-82
2021/12/13 09:44:29;;;;;;;33.80;13.40;;;;;;;;;;5042022;28;20211;-82
2021/12/13 09:47:00;;;;;;;32.40;12.53;;;;;;;;;;5039194;28;20361;-80
2021/12/13 09:49:29;;;;;;;27.73;12.13;;;;;;;;;;5038816;28;20269;-80
2021/12/13 09:52:04;;;;;;;32.50;13.03;;;;;;;;;;5040166;28;20743;-82
2021/12/13 09:54:33;;;;;;;33.17;12.63;;;;;;;;;;5043285;28;20827;-81
2021/12/13 09:57:01;;;;;;;29.40;11.87;;;;;;;;;;5041012;28;20263;-80
2021/12/13 09:59:30;;;;;;;31.43;12.40;;;;;;;;;;5044079;28;20246;-80
2021/12/13 10:02:04;;;;;;;29.60;12.13;;;;;;;;;;5039665;28;20258;-80
2021/12/13 10:04:33;;;;;;;30.77;12.33;;;;;;;;;;5040740;28;20705;-81
2021/12/13 10:07:03;;;;;;;28.83;11.83;;;;;;;;;;5039466;28;20238;-81
2021/12/13 10:09:34;;;;;;;26.37;11.20;;;;;;;;;;5040175;28;20346;-82
2021/12/13 10:12:02;;;;;;;29.77;11.53;;;;;;;;;;5039321;28;20580;-81
2021/12/13 10:14:31;;;;;;;26.13;11.50;;;;;;;;;;5041659;28;20203;-81
2021/12/13 10:16:59;;;;;;;29.53;11.33;;;;;;;;;;5035005;28;20286;-81
2021/12/13 10:19:28;;;;;;;19.90;9.00;;;;;;;;;;5040397;28;20315;-81
2021/12/13 10:21:55;;;;;;;21.50;8.70;;;;;;;;;;5043001;28;20258;-81
2021/12/13 10:24:26;;;;;;;21.50;9.37;;;;;;;;;;5041302;28;20223;-81
2021/12/13 10:26:54;;;;;;;22.50;9.20;;;;;;;;;;5043638;28;20235;-82
2021/12/13 10:29:23;;;;;;;20.63;8.77;;;;;;;;;;5039985;28;20322;-80
2021/12/13 10:31:53;;;;;;;18.00;8.53;;;;;;;;;;5036310;28;20276;-81
2021/12/13 10:34:21;;;;;;;19.10;8.70;;;;;;;;;;5034532;28;20371;-80
2021/12/13 10:36:51;;;;;;;19.37;8.10;;;;;;;;;;5035556;28;20299;-81
2021/12/13 10:39:20;;;;;;;17.97;7.63;;;;;;;;;;5035050;28;20215;-81
2021/12/13 10:41:55;;;;;;;19.53;8.50;;;;;;;;;;5037920;28;20567;-82
2021/12/13 10:44:27;;;;;;;21.47;9.00;;;;;;;;;;5039108;28;20660;-81
2021/12/13 10:46:56;;;;;;;17.97;8.73;;;;;;;;;;5033294;28;20566;-81
2021/12/13 10:49:24;;;;;;;21.87;10.03;;;;;;;;;;5035686;28;20325;-81
2021/12/13 10:51:55;;;;;;;22.60;9.97;;;;;;;;;;5036149;28;20206;-81
2021/12/13 10:54:25;;;;;;;21.57;9.57;;;;;;;;;;5037093;28;20263;-81
2021/12/13 10:56:55;;;;;;;22.50;10.20;;;;;;;;;;5035973;28;20577;-80
2021/12/13 10:59:28;;;;;;;28.03;11.83;;;;;;;;;;5034035;28;20674;-80
2021/12/13 11:01:57;;;;;;;22.70;9.80;;;;;;;;;;5028766;28;20691;-81
2021/12/13 11:04:28;;;;;;;22.40;9.90;;;;;;;;;;5023616;28;20222;-82
2021/12/13 11:06:55;;;;;;;22.97;10.03;;;;;;;;;;5033846;28;20744;-81
2021/12/13 11:09:24;;;;;;;22.67;10.83;;;;;;;;;;5027002;28;20313;-81
2021/12/13 11:11:53;;;;;;;24.40;11.03;;;;;;;;;;5030357;28;20203;-80
2021/12/13 11:14:24;;;;;;;25.60;12.33;;;;;;;;;;5036762;28;20258;-81
2021/12/13 11:16:54;;;;;;;25.77;12.90;;;;;;;;;;5034264;28;20200;-81
2021/12/13 11:19:22;;;;;;;31.87;12.97;;;;;;;;;;5029162;28;20340;-81
2021/12/13 11:21:51;;;;;;;26.63;12.37;;;;;;;;;;5030660;28;20290;-81
2021/12/13 11:24:20;;;;;;;24.63;11.43;;;;;;;;;;5034281;28;20282;-80
2021/12/13 11:26:49;;;;;;;22.50;10.93;;;;;;;;;;5035151;28;20268;-80
2021/12/13 11:29:16;;;;;;;23.20;11.23;;;;;;;;;;5042313;28;20223;-81
2021/12/13 11:34:39;;;;;;;22.63;10.23;;;;;;;;;;5018754;28;20620;-81
2021/12/13 11:37:25;;;;;;;21.90;9.83;;;;;;;;;;5020629;28;20232;-77
2021/12/13 11:40:00;;;;;;;22.47;10.57;;;;;;;;;;5019605;28;20243;-78
2021/12/13 11:42:39;;;;;;;21.27;10.37;;;;;;;;;;5015673;28;20228;-79
2021/12/13 11:45:27;;;;;;;20.50;10.20;;;;;;;;;;5013197;28;20496;-79
2021/12/13 11:48:06;;;;;;;19.70;10.03;;;;;;;;;;5014248;28;20592;-78
2021/12/13 11:50:57;;;;;;;20.33;10.00;;;;;;;;;;5019863;28;20290;-78
2021/12/13 11:53:50;;;;;;;21.67;10.03;;;;;;;;;;5018749;28;20337;-80
2021/12/13 11:56:47;;;;;;;26.20;11.60;;;;;;;;;;5012684;28;20211;-77
2021/12/13 11:59:30;;;;;;;23.07;11.43;;;;;;;;;;4975519;28;20253;-79
2021/12/13 12:02:01;;;;;;;21.23;10.90;;;;;;;;;;5021227;28;20231;-76
2021/12/13 12:04:49;;;;;;;24.63;11.30;;;;;;;;;;5023228;28;20664;-81
2021/12/13 12:07:38;;;;;;;23.27;11.47;;;;;;;;;;5021660;28;20642;-80
2021/12/13 12:10:19;;;;;;;26.90;13.57;;;;;;;;;;5020872;28;20227;-77
2021/12/13 12:12:49;;;;;;;27.00;12.57;;;;;;;;;;5018796;28;20196;-79
2021/12/13 12:15:17;;;;;;;27.23;13.53;;;;;;;;;;5020823;28;20274;-82
2021/12/13 12:17:44;;;;;;;25.93;12.53;;;;;;;;;;5027900;28;20204;-79
2021/12/13 12:20:14;;;;;;;29.30;14.07;;;;;;;;;;5028332;28;20251;-79
2021/12/13 12:22:50;;;;;;;23.77;12.00;;;;;;;;;;5023889;28;20502;-80
2021/12/13 12:25:18;;;;;;;26.30;12.80;;;;;;;;;;5019376;28;20339;-80
2021/12/13 12:27:46;;;;;;;26.87;13.70;;;;;;;;;;5026306;22;20224;-82
2021/12/13 12:30:15;;;;;;;29.03;13.37;;;;;;;;;;5011562;28;20589;-82
2021/12/13 12:32:44;;;;;;;24.70;11.83;;;;;;;;;;5006845;28;20204;-79
2021/12/13 12:35:13;;;;;;;24.13;11.30;;;;;;;;;;5007898;28;20216;-80
2021/12/13 12:38:04;;;;;;;21.93;11.53;;;;;;;;;;5017130;28;20250;-80
2021/12/13 12:40:37;;;;;;;28.43;13.10;;;;;;;;;;4987946;28;20232;-82
2021/12/13 12:43:07;;;;;;;26.60;12.17;;;;;;;;;;5008112;28;20224;-80
2021/12/13 12:45:36;;;;;;;22.97;12.07;;;;;;;;;;5011132;28;20614;-81
2021/12/13 12:48:14;;;;;;;24.00;11.80;;;;;;;;;;5006679;28;20284;-81
2021/12/13 12:50:59;;;;;;;26.80;13.40;;;;;;;;;;5011496;28;20251;-80
2021/12/13 12:53:35;;;;;;;25.37;13.53;;;;;;;;;;5005835;28;20208;-81
2021/12/13 12:56:06;;;;;;;25.60;12.77;;;;;;;;;;5008321;28;20232;-80
2021/12/13 12:58:38;;;;;;;26.23;13.43;;;;;;;;;;4998790;28;20313;-80
2021/12/13 13:01:07;;;;;;;30.97;13.33;;;;;;;;;;4998857;28;20227;-81
2021/12/13 13:03:35;;;;;;;27.23;12.77;;;;;;;;;;5001694;28;20229;-81
2021/12/13 13:06:05;;;;;;;23.53;11.07;;;;;;;;;;4999161;28;20268;-80
2021/12/13 13:08:33;;;;;;;22.87;11.10;;;;;;;;;;4996756;28;20304;-81
2021/12/13 13:13:49;;;;;;;21.17;11.60;;;;;;;;;;5007093;28;20676;-80
2021/12/13 13:16:18;;;;;;;22.20;11.40;;;;;;;;;;5003583;28;20228;-81
2021/12/13 13:18:45;;;;;;;25.47;12.00;;;;;;;;;;5002781;28;20221;-81
2021/12/13 13:21:14;;;;;;;21.00;11.37;;;;;;;;;;5007693;28;20255;-81
2021/12/13 13:23:44;;;;;;;22.23;11.47;;;;;;;;;;5001800;28;20303;-81
2021/12/13 13:26:13;;;;;;;22.07;11.00;;;;;;;;;;5007077;28;20232;-81
2021/12/13 13:28:42;;;;;;;21.93;11.37;;;;;;;;;;4997485;28;20320;-81
2021/12/13 13:31:12;;;;;;;22.63;11.80;;;;;;;;;;4998860;28;21512;-80
2021/12/13 13:33:41;;;;;;;20.00;9.87;;;;;;;;;;5001182;28;20220;-80
2021/12/13 13:36:09;;;;;;;19.33;10.53;;;;;;;;;;4999417;28;20248;-80
2021/12/13 13:38:37;;;;;;;20.17;11.10;;;;;;;;;;5004821;28;21627;-82
2021/12/13 13:41:07;;;;;;;22.07;10.43;;;;;;;;;;5014294;28;20263;-80
2021/12/13 13:43:37;;;;;;;17.83;9.57;;;;;;;;;;5006395;28;21091;-80
2021/12/13 13:46:05;;;;;;;20.57;10.17;;;;;;;;;;5008458;28;20210;-80
2021/12/13 13:48:36;;;;;;;21.77;12.17;;;;;;;;;;5010384;28;21222;-80
2021/12/13 13:51:05;;;;;;;22.07;11.97;;;;;;;;;;5007220;28;20232;-80
2021/12/13 13:53:33;;;;;;;22.47;10.60;;;;;;;;;;5008676;28;20209;-80
2021/12/13 13:56:05;;;;;;;19.23;9.97;;;;;;;;;;5009900;28;20228;-80
2021/12/13 13:58:33;;;;;;;19.33;10.03;;;;;;;;;;5004669;28;20225;-80
2021/12/13 14:01:03;;;;;;;20.63;10.90;;;;;;;;;;5011749;28;20205;-80
2021/12/13 14:03:37;;;;;;;19.07;10.03;;;;;;;;;;5006665;28;20326;-80
2021/12/13 14:06:05;;;;;;;17.60;10.03;;;;;;;;;;5004104;28;20204;-81
2021/12/13 14:08:33;;;;;;;16.30;9.40;;;;;;;;;;5005952;28;20264;-80
2021/12/13 14:11:01;;;;;;;22.33;10.23;;;;;;;;;;4994726;28;20658;-80
2021/12/13 14:13:33;;;;;;;21.50;11.50;;;;;;;;;;4993602;28;21552;-80
2021/12/13 14:16:09;;;;;;;24.50;10.10;;;;;;;;;;4990472;28;20569;-80
2021/12/13 14:18:37;;;;;;;19.87;10.53;;;;;;;;;;5007410;28;20248;-81
2021/12/13 14:21:10;;;;;;;17.97;10.07;;;;;;;;;;5003686;28;20275;-81
2021/12/13 14:23:38;;;;;;;18.27;10.40;;;;;;;;;;5002155;28;20217;-79
2021/12/13 14:26:06;;;;;;;19.47;11.10;;;;;;;;;;5005219;28;20227;-80
2021/12/13 14:28:36;;;;;;;17.83;10.30;;;;;;;;;;5004586;28;20240;-79
2021/12/13 14:31:05;;;;;;;19.83;10.40;;;;;;;;;;5003501;28;20207;-79
2021/12/13 14:33:34;;;;;;;17.20;9.53;;;;;;;;;;5008470;28;20243;-82
2021/12/13 14:36:08;;;;;;;19.23;10.43;;;;;;;;;;4998231;28;20205;-82
2021/12/13 14:38:37;;;;;;;16.43;9.50;;;;;;;;;;5002725;28;20293;-80
2021/12/13 14:41:06;;;;;;;18.13;10.37;;;;;;;;;;4998869;28;20268;-80
2021/12/13 14:43:35;;;;;;;16.90;9.57;;;;;;;;;;4999219;28;20215;-79
2021/12/13 14:46:03;;;;;;;18.73;9.60;;;;;;;;;;5006138;28;20228;-80
2021/12/13 14:48:31;;;;;;;18.70;9.73;;;;;;;;;;5004041;28;20247;-80
2021/12/13 14:50:59;;;;;;;28.07;10.37;;;;;;;;;;5003684;28;20291;-81
2021/12/13 14:53:30;;;;;;;17.67;9.77;;;;;;;;;;4997814;28;20287;-80
2021/12/13 14:55:59;;;;;;;18.07;9.70;;;;;;;;;;4998675;28;20328;-80
2021/12/13 14:58:32;;;;;;;18.73;9.60;;;;;;;;;;5000943;28;20301;-80
2021/12/13 15:01:02;;;;;;;17.30;9.47;;;;;;;;;;4998507;28;20839;-80
2021/12/13 15:03:31;;;;;;;17.93;9.80;;;;;;;;;;5000584;28;20232;-80
2021/12/13 15:05:59;;;;;;;16.77;9.17;;;;;;;;;;5002104;28;20205;-80
2021/12/13 15:08:27;;;;;;;20.63;10.27;;;;;;;;;;5003072;28;20288;-81
2021/12/13 15:10:59;;;;;;;19.73;10.00;;;;;;;;;;4999853;28;20594;-81
2021/12/13 15:13:26;;;;;;;20.40;10.20;;;;;;;;;;5003810;28;20220;-80
2021/12/13 15:15:56;;;;;;;20.63;10.27;;;;;;;;;;5003815;28;20323;-80
2021/12/13 15:18:28;;;;;;;18.10;9.90;;;;;;;;;;5002025;28;20615;-81
2021/12/13 15:20:57;;;;;;;21.67;10.80;;;;;;;;;;5006958;28;20284;-81
2021/12/13 15:23:25;;;;;;;21.27;10.00;;;;;;;;;;5012378;28;21336;-81
2021/12/13 15:25:54;;;;;;;22.33;10.43;;;;;;;;;;5005137;28;20717;-79
2021/12/13 15:28:24;;;;;;;19.27;10.17;;;;;;;;;;5006906;28;20246;-81
2021/12/13 15:30:51;;;;;;;21.30;11.00;;;;;;;;;;5002634;28;20231;-81
2021/12/13 15:33:19;;;;;;;22.23;11.17;;;;;;;;;;5008554;28;20244;-80
2021/12/13 15:35:47;;;;;;;20.33;10.70;;;;;;;;;;4998946;28;20677;-80
2021/12/13 15:38:16;;;;;;;22.37;11.20;;;;;;;;;;5002918;28;20207;-81
2021/12/13 15:40:45;;;;;;;24.17;12.33;;;;;;;;;;5001061;28;20331;-80
2021/12/13 15:43:14;;;;;;;23.47;11.03;;;;;;;;;;5003042;28;20756;-80
2021/12/13 15:45:45;;;;;;;29.80;16.53;;;;;;;;;;5001792;28;20565;-81
2021/12/13 15:51:00;;;;;;;21.60;11.23;;;;;;;;;;5000504;28;20702;-80
2021/12/13 15:53:27;;;;;;;30.90;16.27;;;;;;;;;;5004352;28;20240;-80
2021/12/13 15:55:55;;;;;;;35.47;17.50;;;;;;;;;;5005024;28;20231;-80
2021/12/13 15:58:25;;;;;;;29.17;14.67;;;;;;;;;;5001900;28;20287;-80
2021/12/13 16:00:55;;;;;;;24.87;12.50;;;;;;;;;;5000620;28;20236;-80
2021/12/13 16:03:26;;;;;;;25.10;12.30;;;;;;;;;;5003370;28;20584;-81
2021/12/13 16:05:55;;;;;;;24.70;13.23;;;;;;;;;;5002821;28;20299;-81
2021/12/13 16:08:40;;;;;;;26.80;13.40;;;;;;;;;;5003814;28;20349;-80